Time;durP1;ratioP1;P1;durP2;ratioP2;P2;SDS_P1;SDS_P2;PMS_P1;PMS_P2;Temp;Humidity;BMP_temperature;BMP_pressure;BME280_temperature;BME280_humidity;BME280_pressure;Samples;Min_cycle;Max_cycle;Signal;HPM_P1;HPM_P2
2022/08/30 00:02:33;;;;;;;1.30;1.20;;;22.80;42.80;;;;;;5032781;28;20268;-75
2022/08/30 00:05:00;;;;;;;1.30;1.10;;;22.60;43.90;;;;;;5034956;28;20913;-75
2022/08/30 00:07:27;;;;;;;1.30;1.30;;;22.40;43.90;;;;;;5050153;28;20524;-75
2022/08/30 00:09:52;;;;;;;1.30;1.30;;;22.30;44.20;;;;;;5049694;28;20428;-75
2022/08/30 00:12:19;;;;;;;1.30;1.10;;;22.30;45.40;;;;;;5050452;28;20542;-75
2022/08/30 00:14:46;;;;;;;1.30;1.10;;;22.40;43.90;;;;;;5050769;28;20210;-75
2022/08/30 00:17:11;;;;;;;1.30;1.13;;;22.30;45.10;;;;;;5050739;28;20955;-75
2022/08/30 00:19:37;;;;;;;1.30;1.23;;;22.20;44.20;;;;;;5047997;28;20410;-76
2022/08/30 00:22:04;;;;;;;1.30;1.20;;;22.30;44.90;;;;;;5042600;28;20178;-75
2022/08/30 00:24:29;;;;;;;1.30;1.30;;;22.20;45.70;;;;;;5050943;28;20176;-75
2022/08/30 00:26:55;;;;;;;1.30;1.10;;;22.20;44.70;;;;;;5049804;28;20945;-75
2022/08/30 00:29:21;;;;;;;1.30;1.27;;;22.10;45.90;;;;;;5050629;28;20188;-75
2022/08/30 00:31:47;;;;;;;1.30;1.20;;;22.00;45.40;;;;;;5050707;28;20204;-75
2022/08/30 00:34:13;;;;;;;1.30;1.20;;;22.10;44.80;;;;;;5049317;28;20459;-75
2022/08/30 00:36:38;;;;;;;1.30;1.20;;;22.10;45.20;;;;;;5049585;28;20500;-75
2022/08/30 00:39:05;;;;;;;1.30;1.20;;;22.20;44.60;;;;;;5050669;28;20414;-75
2022/08/30 00:41:30;;;;;;;1.30;1.10;;;22.20;44.80;;;;;;5050823;28;20168;-75
2022/08/30 00:43:56;;;;;;;1.30;1.27;;;22.10;45.30;;;;;;5041486;28;20428;-75
2022/08/30 00:46:22;;;;;;;1.30;1.20;;;22.10;45.90;;;;;;5047013;28;20286;-75
2022/08/30 00:48:48;;;;;;;1.30;1.30;;;22.10;46.30;;;;;;5050785;28;20287;-73
2022/08/30 00:51:16;;;;;;;1.30;1.30;;;22.10;46.10;;;;;;5047106;28;20238;-73
2022/08/30 00:53:47;;;;;;;1.30;1.20;;;22.00;46.30;;;;;;5044846;28;20455;-73
2022/08/30 00:56:13;;;;;;;1.30;1.10;;;21.90;46.70;;;;;;5048953;28;20538;-73
2022/08/30 00:58:44;;;;;;;1.30;1.20;;;22.00;46.50;;;;;;5049024;28;20977;-73
2022/08/30 01:01:10;;;;;;;1.30;1.20;;;21.80;47.20;;;;;;5047162;28;20440;-73
2022/08/30 01:03:37;;;;;;;1.30;1.23;;;21.80;47.30;;;;;;5049480;28;20427;-73
2022/08/30 01:06:04;;;;;;;1.30;1.20;;;21.80;48.10;;;;;;5049521;28;20556;-73
2022/08/30 01:08:30;;;;;;;1.30;1.10;;;21.80;47.30;;;;;;5049385;28;20937;-73
2022/08/30 01:10:56;;;;;;;1.30;1.10;;;21.70;47.30;;;;;;5049409;28;20426;-73
2022/08/30 01:13:24;;;;;;;1.30;1.20;;;21.80;47.50;;;;;;5043119;28;20206;-73
2022/08/30 01:15:50;;;;;;;1.30;1.23;;;21.60;47.10;;;;;;5049558;28;20457;-73
2022/08/30 01:18:17;;;;;;;1.30;1.10;;;21.70;46.70;;;;;;5048337;28;20513;-73
2022/08/30 01:20:54;;;;;;;1.30;1.20;;;21.60;47.70;;;;;;5049920;28;20426;-73
2022/08/30 01:23:21;;;;;;;1.30;1.30;;;21.50;47.40;;;;;;5041895;28;20460;-73
2022/08/30 01:25:49;;;;;;;1.30;1.20;;;21.70;48.40;;;;;;5052487;28;20458;-73
2022/08/30 01:28:19;;;;;;;1.30;1.10;;;21.60;47.40;;;;;;5054059;28;20453;-73
2022/08/30 01:30:45;;;;;;;1.30;1.20;;;21.60;48.10;;;;;;5045888;28;20440;-73
2022/08/30 01:33:11;;;;;;;1.30;1.27;;;21.60;47.90;;;;;;5045642;28;20460;-73
2022/08/30 01:35:57;;;;;;;1.30;1.20;;;21.60;47.30;;;;;;5051939;28;20805;-73
2022/08/30 01:38:47;;;;;;;1.30;1.20;;;21.40;48.20;;;;;;5053971;28;20425;-73
2022/08/30 01:41:26;;;;;;;1.30;1.30;;;21.30;48.10;;;;;;5041814;28;20460;-73
2022/08/30 01:43:54;;;;;;;1.30;1.20;;;21.40;48.10;;;;;;5051549;28;20442;-73
2022/08/30 01:46:23;;;;;;;1.30;1.10;;;21.40;48.60;;;;;;5051290;28;20642;-73
2022/08/30 01:48:50;;;;;;;1.30;1.20;;;21.40;47.80;;;;;;5053932;28;20986;-73
2022/08/30 01:51:16;;;;;;;1.30;1.27;;;21.30;49.20;;;;;;5052500;28;20956;-73
2022/08/30 01:53:43;;;;;;;1.30;1.20;;;21.30;47.70;;;;;;5053835;28;20457;-73
2022/08/30 01:56:10;;;;;;;1.30;1.20;;;21.40;48.40;;;;;;5050367;28;20496;-74
2022/08/30 01:58:37;;;;;;;1.30;1.20;;;21.30;48.90;;;;;;5048080;28;20426;-73
2022/08/30 02:01:05;;;;;;;1.30;1.30;;;21.10;48.50;;;;;;5053725;28;20478;-73
2022/08/30 02:03:33;;;;;;;1.30;1.10;;;21.30;48.80;;;;;;5045756;28;20429;-73
2022/08/30 02:06:18;;;;;;;1.30;1.20;;;21.20;48.20;;;;;;5052928;28;20577;-73
2022/08/30 02:08:45;;;;;;;1.30;1.27;;;21.30;49.20;;;;;;5051523;28;20940;-73
2022/08/30 02:11:12;;;;;;;1.30;1.10;;;21.30;47.80;;;;;;5051924;28;20429;-73
2022/08/30 02:13:39;;;;;;;1.30;1.13;;;21.30;48.50;;;;;;5052902;28;20552;-73
2022/08/30 02:16:07;;;;;;;1.30;1.30;;;21.40;47.10;;;;;;5052480;28;20460;-73
2022/08/30 02:18:34;;;;;;;1.30;1.20;;;21.30;48.80;;;;;;5051433;28;20822;-73
2022/08/30 02:21:00;;;;;;;1.30;1.20;;;21.20;48.70;;;;;;5052177;28;20430;-73
2022/08/30 02:23:26;;;;;;;1.30;1.20;;;21.20;48.80;;;;;;5052463;28;20582;-73
2022/08/30 02:25:52;;;;;;;1.30;1.20;;;22.00;50.10;;;;;;5053280;28;20453;-73
2022/08/30 02:28:18;;;;;;;1.30;1.23;;;21.10;48.60;;;;;;5053904;28;20430;-73
2022/08/30 02:30:45;;;;;;;1.30;1.10;;;21.20;48.60;;;;;;5051707;28;20422;-73
2022/08/30 02:33:11;;;;;;;1.30;1.20;;;21.10;48.80;;;;;;5051532;28;20980;-73
2022/08/30 02:35:36;;;;;;;1.30;1.20;;;21.00;49.30;;;;;;5049003;28;20434;-73
2022/08/30 02:38:03;;;;;;;1.30;1.20;;;20.90;48.90;;;;;;5048205;28;20182;-73
2022/08/30 02:40:29;;;;;;;1.30;1.20;;;21.10;48.80;;;;;;5052190;28;20650;-73
2022/08/30 02:42:55;;;;;;;1.30;1.30;;;21.20;48.80;;;;;;5051694;28;20437;-73
2022/08/30 02:45:22;;;;;;;1.30;1.20;;;21.30;48.80;;;;;;5049809;28;20697;-73
2022/08/30 02:47:47;;;;;;;1.30;1.20;;;21.20;49.10;;;;;;5052721;28;20437;-73
2022/08/30 02:50:14;;;;;;;1.30;1.20;;;21.10;49.40;;;;;;5045544;28;20513;-73
2022/08/30 02:52:40;;;;;;;1.30;1.30;;;21.10;48.60;;;;;;5051364;28;20203;-73
2022/08/30 02:55:07;;;;;;;1.30;1.10;;;21.00;49.30;;;;;;5052350;28;20426;-73
2022/08/30 02:57:33;;;;;;;1.30;1.10;;;20.80;50.40;;;;;;5052014;28;20293;-73
2022/08/30 02:59:58;;;;;;;1.30;1.10;;;20.80;49.60;;;;;;5052995;28;20860;-73
2022/08/30 03:02:25;;;;;;;1.30;1.20;;;20.90;49.30;;;;;;5049472;28;20558;-73
2022/08/30 03:04:51;;;;;;;1.30;1.20;;;20.90;49.70;;;;;;5052153;28;20189;-74
2022/08/30 03:07:18;;;;;;;1.30;1.10;;;20.90;50.20;;;;;;5052302;28;20452;-73
2022/08/30 03:09:44;;;;;;;1.30;1.17;;;20.80;48.80;;;;;;5052315;28;20961;-74
2022/08/30 03:12:09;;;;;;;1.30;1.10;;;20.80;49.50;;;;;;5052008;28;20500;-73
2022/08/30 03:14:38;;;;;;;1.30;1.20;;;20.70;49.70;;;;;;5042853;28;20180;-73
2022/08/30 03:17:06;;;;;;;1.30;1.13;;;20.70;50.40;;;;;;5048649;28;20202;-73
2022/08/30 03:19:33;;;;;;;1.30;1.20;;;20.60;50.40;;;;;;5052251;28;20421;-73
2022/08/30 03:21:58;;;;;;;1.30;1.10;;;20.70;50.30;;;;;;5052194;28;20921;-76
2022/08/30 03:24:24;;;;;;;1.30;1.10;;;20.70;50.90;;;;;;5051481;28;20440;-73
2022/08/30 03:26:50;;;;;;;1.30;1.10;;;20.60;50.40;;;;;;5052022;28;20202;-73
2022/08/30 03:29:16;;;;;;;1.30;1.10;;;20.70;49.80;;;;;;5052410;28;20424;-73
2022/08/30 03:31:42;;;;;;;1.30;1.10;;;20.70;49.80;;;;;;5046820;28;20526;-73
2022/08/30 03:34:09;;;;;;;1.30;1.10;;;20.70;50.10;;;;;;5051690;28;20202;-73
2022/08/30 03:36:37;;;;;;;1.30;1.20;;;20.80;49.90;;;;;;5049938;28;20226;-73
2022/08/30 03:39:03;;;;;;;1.30;1.10;;;21.00;48.20;;;;;;5047593;28;20433;-73
2022/08/30 03:41:30;;;;;;;1.30;1.20;;;20.90;49.70;;;;;;5039972;28;20521;-73
2022/08/30 03:43:56;;;;;;;1.30;1.20;;;20.90;49.20;;;;;;5043201;28;20944;-73
2022/08/30 03:46:21;;;;;;;1.30;1.20;;;20.80;49.50;;;;;;5050771;28;20471;-73
2022/08/30 03:48:47;;;;;;;1.30;1.10;;;20.70;50.50;;;;;;5050913;28;20171;-73
2022/08/30 03:51:13;;;;;;;1.30;1.20;;;20.70;50.80;;;;;;5051849;28;20190;-73
2022/08/30 03:53:38;;;;;;;1.30;1.20;;;20.60;50.00;;;;;;5051997;28;20408;-73
2022/08/30 03:56:04;;;;;;;1.30;1.10;;;20.80;50.00;;;;;;5049394;28;20210;-73
2022/08/30 03:58:30;;;;;;;1.30;1.10;;;20.70;50.10;;;;;;5051777;28;20806;-73
2022/08/30 04:00:55;;;;;;;1.30;1.10;;;20.60;50.40;;;;;;5042693;28;20187;-73
2022/08/30 04:03:25;;;;;;;1.30;1.30;;;20.60;51.40;;;;;;5051237;28;20211;-73
2022/08/30 04:05:54;;;;;;;1.30;1.10;;;20.60;50.40;;;;;;5043398;28;20208;-73
2022/08/30 04:08:20;;;;;;;1.30;1.07;;;20.60;50.40;;;;;;5050137;28;20946;-73
2022/08/30 04:10:46;;;;;;;1.30;1.17;;;20.60;50.00;;;;;;5051479;28;20436;-73
2022/08/30 04:13:13;;;;;;;1.30;1.20;;;20.60;49.90;;;;;;5042754;28;20963;-73
2022/08/30 04:15:39;;;;;;;1.30;1.13;;;20.50;50.70;;;;;;5045823;28;20474;-73
2022/08/30 04:18:05;;;;;;;1.30;1.13;;;20.50;49.50;;;;;;5047751;28;20544;-73
2022/08/30 04:20:31;;;;;;;1.30;1.10;;;20.50;50.90;;;;;;5050013;28;20668;-74
2022/08/30 04:22:56;;;;;;;1.30;1.07;;;20.30;51.20;;;;;;5050928;28;20443;-73
2022/08/30 04:25:22;;;;;;;1.30;1.10;;;20.30;50.20;;;;;;5050119;28;20256;-73
2022/08/30 04:27:48;;;;;;;1.30;1.20;;;20.50;49.30;;;;;;5050491;28;20270;-73
2022/08/30 04:30:15;;;;;;;1.30;1.10;;;20.30;50.00;;;;;;5051139;28;20663;-73
2022/08/30 04:32:41;;;;;;;1.30;1.20;;;20.30;50.10;;;;;;5044855;28;20764;-73
2022/08/30 04:35:08;;;;;;;1.30;1.10;;;20.20;50.40;;;;;;5048292;28;20797;-73
2022/08/30 04:37:34;;;;;;;1.27;1.10;;;20.20;52.00;;;;;;5042410;28;20443;-73
2022/08/30 04:39:59;;;;;;;1.30;1.10;;;20.30;50.50;;;;;;5050190;28;20426;-73
2022/08/30 04:42:28;;;;;;;1.30;1.20;;;20.30;51.00;;;;;;5049973;28;20181;-73
2022/08/30 04:44:54;;;;;;;1.30;1.20;;;20.30;51.30;;;;;;5043686;28;20171;-73
2022/08/30 04:47:20;;;;;;;1.30;1.10;;;20.10;51.30;;;;;;5046117;28;20472;-73
2022/08/30 04:49:45;;;;;;;1.30;1.10;;;20.20;50.40;;;;;;5050025;28;20183;-73
2022/08/30 04:52:11;;;;;;;1.30;1.20;;;20.30;50.50;;;;;;5041846;28;20207;-73
2022/08/30 04:54:37;;;;;;;1.30;1.10;;;20.20;50.70;;;;;;5050652;28;20656;-73
2022/08/30 04:57:04;;;;;;;1.30;1.10;;;20.20;50.30;;;;;;5048705;28;20629;-73
2022/08/30 04:59:29;;;;;;;1.30;1.30;;;20.30;50.80;;;;;;5048762;28;20994;-73
2022/08/30 05:01:55;;;;;;;1.30;1.10;;;20.10;51.30;;;;;;5050203;28;20422;-73
2022/08/30 05:04:21;;;;;;;1.30;1.10;;;20.10;52.80;;;;;;5042533;28;20227;-73
2022/08/30 05:06:47;;;;;;;1.30;1.20;;;20.20;52.40;;;;;;5048632;28;20208;-73
2022/08/30 05:09:13;;;;;;;1.30;1.10;;;20.30;50.90;;;;;;5048830;28;20264;-73
2022/08/30 05:11:38;;;;;;;1.30;1.17;;;20.30;51.50;;;;;;5047598;28;20509;-73
2022/08/30 05:14:04;;;;;;;1.30;1.20;;;20.10;51.20;;;;;;5047982;28;20206;-73
2022/08/30 05:16:30;;;;;;;1.30;1.17;;;20.00;51.60;;;;;;5046750;28;20201;-73
2022/08/30 05:18:56;;;;;;;1.30;1.07;;;19.80;53.20;;;;;;5049893;28;20438;-74
2022/08/30 05:21:25;;;;;;;1.30;1.20;;;20.00;52.80;;;;;;5048089;28;20180;-74
2022/08/30 05:23:53;;;;;;;1.30;1.20;;;20.10;52.60;;;;;;5041905;28;20775;-74
2022/08/30 05:26:24;;;;;;;1.30;1.10;;;20.30;51.50;;;;;;5042159;28;20445;-74
2022/08/30 05:28:50;;;;;;;1.30;1.10;;;20.30;51.40;;;;;;5045332;28;20437;-74
2022/08/30 05:31:20;;;;;;;1.30;1.10;;;20.30;51.30;;;;;;5050044;28;20426;-74
2022/08/30 05:33:47;;;;;;;1.30;1.20;;;20.40;51.20;;;;;;5044605;28;20202;-74
2022/08/30 05:36:14;;;;;;;1.30;1.10;;;20.40;51.80;;;;;;5049931;28;21008;-74
2022/08/30 05:38:40;;;;;;;1.30;1.10;;;20.60;51.30;;;;;;5048788;28;20435;-74
2022/08/30 05:41:06;;;;;;;1.30;1.20;;;20.60;51.20;;;;;;5049794;28;20793;-74
2022/08/30 05:43:33;;;;;;;1.30;1.20;;;20.60;51.20;;;;;;5041683;28;20422;-74
2022/08/30 05:46:07;;;;;;;1.30;1.10;;;20.60;51.70;;;;;;5046399;28;20221;-74
2022/08/30 05:48:33;;;;;;;1.30;1.13;;;20.50;52.60;;;;;;5046641;28;20427;-74
2022/08/30 05:51:10;;;;;;;1.27;1.20;;;20.70;51.60;;;;;;5049298;28;20429;-74
2022/08/30 05:53:36;;;;;;;1.30;1.17;;;20.80;51.80;;;;;;5046600;28;20610;-74
2022/08/30 05:56:05;;;;;;;1.30;1.10;;;21.00;51.30;;;;;;5042598;28;20831;-74
2022/08/30 05:58:31;;;;;;;1.30;1.20;;;21.00;51.10;;;;;;5047120;28;20811;-74
2022/08/30 06:00:57;;;;;;;1.30;1.10;;;21.00;50.80;;;;;;5049229;28;20431;-74
2022/08/30 06:03:23;;;;;;;1.27;1.10;;;21.00;51.40;;;;;;5049952;28;20502;-74
2022/08/30 06:05:48;;;;;;;1.20;1.20;;;21.10;50.70;;;;;;5040817;28;20899;-74
2022/08/30 06:08:14;;;;;;;1.30;1.10;;;21.10;50.80;;;;;;5049130;28;20468;-74
2022/08/30 06:10:40;;;;;;;1.20;1.10;;;21.30;49.30;;;;;;5049765;28;20509;-74
2022/08/30 06:13:05;;;;;;;1.30;1.13;;;21.20;49.10;;;;;;5053013;28;20681;-74
2022/08/30 06:15:31;;;;;;;1.20;1.10;;;21.20;49.80;;;;;;5042976;28;20185;-74
2022/08/30 06:17:56;;;;;;;1.30;1.20;;;21.30;48.10;;;;;;5047900;28;20182;-74
2022/08/30 06:20:23;;;;;;;1.23;1.10;;;21.20;48.30;;;;;;5052673;28;20218;-74
2022/08/30 06:22:48;;;;;;;1.30;1.10;;;21.20;49.70;;;;;;5052916;28;20190;-74
2022/08/30 06:25:15;;;;;;;1.30;1.20;;;21.30;49.30;;;;;;5052409;28;20513;-74
2022/08/30 06:27:41;;;;;;;1.30;1.30;;;21.50;48.50;;;;;;5053080;28;20182;-74
2022/08/30 06:30:09;;;;;;;1.30;1.10;;;21.60;48.70;;;;;;5045449;28;20475;-74
2022/08/30 06:32:35;;;;;;;1.30;1.23;;;21.70;48.80;;;;;;5051225;28;20991;-74
2022/08/30 06:35:01;;;;;;;1.30;1.20;;;21.70;48.90;;;;;;5050354;28;20430;-74
2022/08/30 06:37:27;;;;;;;1.27;1.10;;;21.70;47.80;;;;;;5053266;28;20442;-74
2022/08/30 06:39:52;;;;;;;1.30;1.30;;;21.70;48.20;;;;;;5052281;28;20642;-74
2022/08/30 06:42:18;;;;;;;1.30;1.10;;;21.90;48.40;;;;;;5048463;28;20186;-74
2022/08/30 06:44:44;;;;;;;1.30;1.10;;;21.70;47.30;;;;;;5051887;28;20582;-73
2022/08/30 06:47:10;;;;;;;1.23;1.10;;;21.70;46.60;;;;;;5041829;28;20205;-74
2022/08/30 06:49:35;;;;;;;1.30;1.20;;;21.80;47.70;;;;;;5049572;28;20817;-74
2022/08/30 06:52:01;;;;;;;1.30;1.10;;;22.00;47.50;;;;;;5052850;28;20440;-74
2022/08/30 06:54:27;;;;;;;1.30;1.23;;;21.70;47.50;;;;;;5050157;28;20233;-74
2022/08/30 06:56:53;;;;;;;1.30;1.30;;;21.80;46.50;;;;;;5052550;28;20474;-74
2022/08/30 06:59:18;;;;;;;1.30;1.20;;;21.70;46.10;;;;;;5049835;28;20258;-73
2022/08/30 07:01:44;;;;;;;1.30;1.10;;;21.20;48.90;;;;;;5051211;28;20239;-74
2022/08/30 07:04:10;;;;;;;1.30;1.20;;;21.20;49.70;;;;;;5052992;28;20556;-73
2022/08/30 07:06:35;;;;;;;1.30;1.20;;;20.90;50.10;;;;;;5049035;28;20224;-73
2022/08/30 07:09:01;;;;;;;1.30;1.10;;;21.00;50.80;;;;;;5052026;28;20189;-73
2022/08/30 07:11:34;;;;;;;1.30;1.30;;;21.10;50.90;;;;;;5043987;28;20184;-73
2022/08/30 07:14:00;;;;;;;1.20;1.10;;;21.30;49.50;;;;;;5051488;28;20198;-74
2022/08/30 07:16:26;;;;;;;1.20;1.20;;;20.90;51.80;;;;;;5044323;28;20457;-73
2022/08/30 07:18:57;;;;;;;1.30;1.20;;;21.00;52.20;;;;;;5047240;28;20426;-73
2022/08/30 07:21:26;;;;;;;1.30;1.20;;;21.20;51.70;;;;;;5045390;28;20421;-74
2022/08/30 07:23:53;;;;;;;1.30;1.20;;;21.10;50.60;;;;;;5054767;28;20581;-80
2022/08/30 07:26:35;;;;;;;1.30;1.30;;;21.00;50.90;;;;;;5046623;28;20835;-73
2022/08/30 07:29:01;;;;;;;1.23;1.10;;;21.20;50.80;;;;;;5052395;28;20437;-73
2022/08/30 07:31:27;;;;;;;1.30;1.20;;;21.60;48.90;;;;;;5049708;28;20430;-72
2022/08/30 07:33:54;;;;;;;1.20;1.20;;;21.60;49.80;;;;;;5049724;28;20453;-72
2022/08/30 07:36:20;;;;;;;1.30;1.10;;;22.20;48.10;;;;;;5050908;28;20460;-72
2022/08/30 07:38:48;;;;;;;1.30;1.00;;;22.30;46.50;;;;;;5051661;28;20442;-71
2022/08/30 07:41:26;;;;;;;1.30;1.10;;;21.90;47.60;;;;;;5044663;28;20426;-71
2022/08/30 07:43:52;;;;;;;1.30;1.20;;;22.20;47.50;;;;;;5044387;28;20974;-71
2022/08/30 07:46:19;;;;;;;1.30;1.30;;;22.60;44.90;;;;;;5046992;28;21091;-71
2022/08/30 07:48:44;;;;;;;1.30;1.10;;;22.40;46.00;;;;;;5046805;28;20460;-71
2022/08/30 07:51:13;;;;;;;1.30;1.20;;;22.40;46.50;;;;;;5044433;28;20442;-71
2022/08/30 07:53:39;;;;;;;1.20;1.13;;;22.10;47.70;;;;;;5050742;28;20212;-71
2022/08/30 07:56:05;;;;;;;1.23;1.10;;;21.90;48.70;;;;;;5049982;28;20456;-71
2022/08/30 07:58:31;;;;;;;1.30;1.20;;;22.10;48.90;;;;;;5048884;28;20182;-73
2022/08/30 08:00:58;;;;;;;1.23;1.20;;;22.60;47.30;;;;;;5046556;28;20434;-71
2022/08/30 08:03:25;;;;;;;1.23;1.13;;;22.30;47.70;;;;;;5044352;28;20245;-72
2022/08/30 08:05:52;;;;;;;1.27;1.20;;;22.30;48.80;;;;;;5041290;28;20496;-73
2022/08/30 08:08:18;;;;;;;1.30;1.20;;;22.30;49.30;;;;;;5048040;28;20510;-73
2022/08/30 08:10:44;;;;;;;1.30;1.30;;;22.60;48.10;;;;;;5045520;28;21000;-72
2022/08/30 08:13:10;;;;;;;1.20;1.20;;;22.80;48.10;;;;;;5048969;28;20472;-73
2022/08/30 08:15:37;;;;;;;1.27;1.20;;;23.10;46.90;;;;;;5050714;28;20226;-73
2022/08/30 08:18:03;;;;;;;1.30;1.20;;;23.60;46.80;;;;;;5049606;28;20998;-72
2022/08/30 08:20:30;;;;;;;1.30;1.20;;;24.20;42.60;;;;;;5042152;28;20520;-73
2022/08/30 08:22:55;;;;;;;1.20;1.10;;;24.30;41.80;;;;;;5047671;28;20539;-73
2022/08/30 08:25:21;;;;;;;1.20;1.20;;;24.10;42.20;;;;;;5049046;28;20871;-72
2022/08/30 08:27:49;;;;;;;1.30;1.20;;;24.10;42.10;;;;;;5047331;28;20183;-73
2022/08/30 08:30:16;;;;;;;1.27;1.10;;;24.00;42.90;;;;;;5042006;28;20489;-75
2022/08/30 08:32:42;;;;;;;1.20;1.10;;;24.10;43.80;;;;;;5042041;28;20487;-72
2022/08/30 08:35:10;;;;;;;1.20;1.10;;;24.50;42.60;;;;;;5050050;28;20425;-73
2022/08/30 08:37:36;;;;;;;1.27;1.10;;;25.00;39.80;;;;;;5050998;28;20445;-72
2022/08/30 08:40:03;;;;;;;1.30;1.20;;;24.60;40.30;;;;;;5043912;28;20429;-73
2022/08/30 08:42:52;;;;;;;1.30;1.30;;;24.70;40.20;;;;;;5051012;28;20430;-72
2022/08/30 08:45:40;;;;;;;1.20;1.10;;;25.00;40.20;;;;;;5043521;28;20521;-73
2022/08/30 08:48:22;;;;;;;1.30;1.20;;;25.30;39.70;;;;;;5051063;28;20436;-73
2022/08/30 08:53:34;;;;;;;1.20;1.10;;;24.90;40.30;;;;;;5044488;28;20905;-73
2022/08/30 08:56:06;;;;;;;1.30;1.20;;;25.10;40.30;;;;;;5050191;28;20815;-73
2022/08/30 08:58:45;;;;;;;1.20;1.10;;;24.90;40.00;;;;;;5044594;28;20429;-73
2022/08/30 09:01:14;;;;;;;1.23;1.17;;;25.50;40.60;;;;;;5047833;28;20521;-74
2022/08/30 09:03:40;;;;;;;1.20;1.10;;;25.60;39.60;;;;;;5050785;28;20425;-73
2022/08/30 09:06:17;;;;;;;1.20;1.10;;;23.60;38.10;;;;;;5042601;28;20969;-73
2022/08/30 09:08:43;;;;;;;1.20;1.10;;;25.90;38.50;;;;;;5046376;28;20468;-72
2022/08/30 09:11:22;;;;;;;1.20;1.20;;;26.10;37.50;;;;;;5048672;28;20473;-72
2022/08/30 09:13:48;;;;;;;1.20;1.13;;;26.20;36.80;;;;;;5045998;28;20212;-73
2022/08/30 09:16:45;;;;;;;1.20;1.17;;;26.20;35.80;;;;;;5047398;28;20829;-73
2022/08/30 09:19:25;;;;;;;1.20;1.10;;;26.10;37.50;;;;;;5048929;28;20266;-72
2022/08/30 09:21:57;;;;;;;1.20;1.20;;;26.20;37.00;;;;;;5050198;28;20433;-72
2022/08/30 09:24:22;;;;;;;1.20;1.10;;;26.50;35.30;;;;;;5047813;28;21167;-72
2022/08/30 09:26:48;;;;;;;1.20;1.10;;;26.70;35.30;;;;;;5044780;28;20456;-72
2022/08/30 09:29:18;;;;;;;1.23;1.20;;;26.70;35.30;;;;;;5050344;28;20270;-72
2022/08/30 09:31:51;;;;;;;1.20;1.20;;;26.70;34.40;;;;;;5041937;28;20211;-72
2022/08/30 09:34:21;;;;;;;1.20;1.17;;;27.10;33.60;;;;;;5042259;28;20485;-72
2022/08/30 09:36:50;;;;;;;1.30;1.20;;;27.30;33.60;;;;;;5050016;28;20460;-72
2022/08/30 09:39:27;;;;;;;1.27;1.20;;;27.50;31.50;;;;;;5042801;28;20446;-73
2022/08/30 09:41:53;;;;;;;1.20;1.13;;;27.60;31.20;;;;;;5042697;28;20421;-72
2022/08/30 09:44:30;;;;;;;1.20;1.10;;;27.60;32.00;;;;;;5042602;28;20431;-73
2022/08/30 09:46:57;;;;;;;1.20;1.10;;;27.80;31.30;;;;;;5042179;28;20910;-73
2022/08/30 09:49:36;;;;;;;1.20;1.10;;;28.00;31.50;;;;;;5050193;28;20422;-73
2022/08/30 09:52:27;;;;;;;1.20;1.00;;;27.70;31.20;;;;;;5052562;28;20460;-72
2022/08/30 09:54:53;;;;;;;1.20;1.10;;;27.90;31.30;;;;;;5051085;28;20941;-72
2022/08/30 09:57:51;;;;;;;1.20;1.10;;;27.40;31.00;;;;;;5042637;28;20442;-72
2022/08/30 10:00:23;;;;;;;1.20;1.10;;;27.80;31.30;;;;;;5042764;28;20272;-72
2022/08/30 10:02:54;;;;;;;1.20;1.10;;;28.30;31.50;;;;;;5050826;28;20429;-72
2022/08/30 10:05:35;;;;;;;1.20;1.03;;;28.50;28.90;;;;;;5054179;28;20467;-72
2022/08/30 10:08:03;;;;;;;1.20;1.10;;;28.00;29.90;;;;;;5051191;28;20428;-73
2022/08/30 10:10:35;;;;;;;1.20;1.07;;;28.10;30.40;;;;;;5053653;28;20422;-72
2022/08/30 10:13:21;;;;;;;1.20;1.10;;;28.40;29.40;;;;;;5053043;28;20542;-72
2022/08/30 10:16:04;;;;;;;1.20;1.10;;;29.00;28.50;;;;;;5045587;28;20442;-72
2022/08/30 10:18:44;;;;;;;1.20;1.10;;;29.30;28.40;;;;;;5053663;28;20453;-72
2022/08/30 10:21:32;;;;;;;1.20;1.10;;;29.00;28.20;;;;;;5052216;28;20441;-72
2022/08/30 10:24:16;;;;;;;1.20;1.00;;;28.70;28.00;;;;;;5048682;28;20482;-72
2022/08/30 10:26:57;;;;;;;1.20;1.00;;;28.30;27.50;;;;;;5045504;28;20464;-73
2022/08/30 10:29:29;;;;;;;1.20;1.10;;;27.90;31.00;;;;;;5048779;28;20434;-72
2022/08/30 10:32:18;;;;;;;1.20;1.10;;;27.80;29.20;;;;;;5044619;28;20451;-73
2022/08/30 10:35:03;;;;;;;1.20;1.03;;;28.20;29.30;;;;;;5046487;28;20492;-72
2022/08/30 10:37:34;;;;;;;1.23;1.20;;;29.20;28.90;;;;;;5041616;28;20454;-72
2022/08/30 10:43:08;;;;;;;1.20;1.10;;;29.20;27.00;;;;;;5048034;28;20448;-73
2022/08/30 10:45:39;;;;;;;1.20;1.10;;;29.80;27.00;;;;;;5050571;28;20454;-73
2022/08/30 10:48:28;;;;;;;1.20;1.10;;;30.20;26.20;;;;;;5053247;28;20789;-72
2022/08/30 10:50:58;;;;;;;1.23;1.10;;;29.80;25.20;;;;;;5047610;28;20407;-73
2022/08/30 10:54:15;;;;;;;1.20;1.10;;;30.20;25.90;;;;;;5046867;28;20531;-73
2022/08/30 10:56:43;;;;;;;1.20;1.00;;;30.60;25.70;;;;;;4938746;29;20458;-73
2022/08/30 10:59:09;;;;;;;1.20;1.10;;;31.40;25.50;;;;;;4952471;28;20437;-73
2022/08/30 11:01:41;;;;;;;1.20;1.00;;;31.00;22.90;;;;;;4951907;28;20442;-72
2022/08/30 11:04:28;;;;;;;1.20;1.00;;;30.60;24.20;;;;;;4952623;28;21029;-72
2022/08/30 11:07:04;;;;;;;1.20;1.00;;;31.00;23.40;;;;;;4951220;29;20575;-73
2022/08/30 11:09:41;;;;;;;1.20;1.07;;;31.40;23.60;;;;;;4946380;28;20929;-73
2022/08/30 11:12:18;;;;;;;1.20;1.00;;;31.70;21.70;;;;;;4946454;28;20953;-73
2022/08/30 11:14:44;;;;;;;1.20;1.00;;;32.00;21.30;;;;;;4944490;29;21020;-73
2022/08/30 11:17:29;;;;;;;1.20;1.10;;;32.00;22.10;;;;;;4950656;28;20458;-73
2022/08/30 11:19:58;;;;;;;1.20;1.00;;;32.20;21.90;;;;;;4945759;29;21032;-73
2022/08/30 11:22:34;;;;;;;1.20;0.97;;;32.40;20.50;;;;;;4950039;28;20450;-73
2022/08/30 11:25:05;;;;;;;1.20;1.00;;;32.40;20.60;;;;;;4946759;29;20445;-72
2022/08/30 11:27:51;;;;;;;1.20;1.10;;;32.90;20.20;;;;;;4944803;28;20459;-73
2022/08/30 11:30:42;;;;;;;1.20;0.90;;;33.10;18.00;;;;;;4950083;28;20481;-73
2022/08/30 11:33:11;;;;;;;1.20;1.00;;;33.20;17.60;;;;;;5007108;28;20465;-73
2022/08/30 11:35:49;;;;;;;1.20;1.00;;;33.10;19.10;;;;;;5044824;28;20442;-73
2022/08/30 11:38:37;;;;;;;1.20;1.00;;;32.40;18.60;;;;;;5049970;28;20430;-73
2022/08/30 11:41:27;;;;;;;1.20;0.90;;;32.10;18.80;;;;;;5048652;28;20429;-73
2022/08/30 11:43:54;;;;;;;1.20;1.10;;;32.20;19.80;;;;;;5049139;28;20473;-73
2022/08/30 11:46:26;;;;;;;1.20;1.00;;;32.30;20.30;;;;;;5045630;28;21056;-72
2022/08/30 11:49:11;;;;;;;1.20;0.90;;;32.20;18.90;;;;;;5046736;28;20505;-72
2022/08/30 11:51:52;;;;;;;1.20;1.00;;;33.00;19.00;;;;;;5045671;28;20437;-73
2022/08/30 11:54:36;;;;;;;1.20;1.00;;;33.20;17.10;;;;;;5046152;28;20514;-80
2022/08/30 11:57:19;;;;;;;1.20;1.00;;;33.20;17.50;;;;;;5044279;28;20793;-72
2022/08/30 12:00:09;;;;;;;1.20;0.90;;;33.40;16.00;;;;;;5051029;28;20430;-73
2022/08/30 12:02:56;;;;;;;1.20;1.00;;;33.30;17.00;;;;;;5047100;28;20414;-72
2022/08/30 12:05:45;;;;;;;1.20;0.90;;;32.80;17.40;;;;;;5044084;28;20422;-73
2022/08/30 12:08:32;;;;;;;1.20;0.90;;;33.10;19.30;;;;;;5045477;28;20412;-73
2022/08/30 12:11:00;;;;;;;1.20;1.03;;;33.30;17.70;;;;;;5045785;28;20438;-74
2022/08/30 12:13:37;;;;;;;1.20;1.00;;;33.50;16.50;;;;;;5049527;28;20469;-74
2022/08/30 12:16:13;;;;;;;1.20;0.90;;;34.00;16.10;;;;;;5051340;28;20442;-72
2022/08/30 12:18:49;;;;;;;1.20;0.90;;;34.80;16.10;;;;;;5051106;28;20429;-72
2022/08/30 12:21:21;;;;;;;1.20;0.90;;;35.10;15.90;;;;;;5050004;28;20434;-72
2022/08/30 12:24:12;;;;;;;1.20;0.90;;;35.00;16.90;;;;;;5046272;28;20418;-74
2022/08/30 12:26:44;;;;;;;1.20;0.90;;;34.70;15.20;;;;;;5028805;28;20520;-74
2022/08/30 12:29:24;;;;;;;1.20;0.90;;;35.50;14.90;;;;;;5048146;28;20521;-74
2022/08/30 12:32:03;;;;;;;1.20;0.90;;;35.90;15.30;;;;;;5045083;28;20520;-71
2022/08/30 12:34:31;;;;;;;1.20;0.93;;;36.00;14.50;;;;;;5045242;28;20471;-73
2022/08/30 12:37:02;;;;;;;1.20;0.90;;;36.20;12.20;;;;;;5047454;28;20457;-74
2022/08/30 12:39:40;;;;;;;1.20;0.90;;;36.00;12.80;;;;;;5042965;28;20945;-71
2022/08/30 12:42:27;;;;;;;1.20;0.83;;;36.20;11.90;;;;;;5050262;28;20428;-72
2022/08/30 12:44:56;;;;;;;1.20;0.90;;;35.20;14.30;;;;;;5050804;28;20501;-74
2022/08/30 12:47:44;;;;;;;1.20;0.90;;;34.30;14.50;;;;;;5048738;28;20504;-75
2022/08/30 12:50:14;;;;;;;1.20;0.90;;;34.40;14.30;;;;;;5045962;28;20891;-74
2022/08/30 12:52:46;;;;;;;1.20;0.90;;;34.40;16.80;;;;;;5046306;28;20488;-74
2022/08/30 12:55:16;;;;;;;1.20;0.90;;;34.50;15.60;;;;;;5048757;28;20497;-74
2022/08/30 12:57:53;;;;;;;1.20;0.90;;;34.50;13.90;;;;;;5049953;28;20514;-74
2022/08/30 13:00:32;;;;;;;1.20;0.90;;;34.30;15.60;;;;;;5044818;28;20461;-73
2022/08/30 13:03:25;;;;;;;1.20;0.90;;;34.10;14.60;;;;;;5048575;28;20437;-73
2022/08/30 13:05:51;;;;;;;1.20;0.90;;;34.10;16.00;;;;;;5045074;28;20510;-74
2022/08/30 13:08:24;;;;;;;1.20;0.90;;;34.50;15.40;;;;;;5050612;28;20421;-74
2022/08/30 13:11:03;;;;;;;1.20;0.90;;;34.70;14.00;;;;;;5041588;28;20440;-74